Bridgeport, Nebraska
Current Conditions -  °F | °C
As of 12:53 PM on Wednesday 28 Jan 2015 (Local Time) from KAIA Reporting Station
Overcast Overcast  
Wind Chill: 55°   Ceiling: 8000
Heat Index: 55°   Visibility: 10mi
Dew Point: 29°   Wind: 22mph
Humidity: 37%   Direction: 330°NNW
Pressure: 29.93"   Gusts: 35mph
Location:  41.67°N, 103.1°W
Report Text: KAIA 281953Z AUTO 33019G30KT 10SM OVC080 13/M02 A2993 RMK AO2 PK WND 34030/1948 SLP132 T01281017
Loading
Personal Weather Stations






























Interactive Weather Map New forecast layout! Learn more

10-Day Weather Forecast

Advertisements
Track Severe Weather on mobile